»·PEaware :: DAL1185 KLAX-KRNO

DAL1185 :: KLAX-KRNO

FLIGHT INFORMATION

Flight Status: Arrived
Operator:
Delta Air Lines
More flights by this operator :: More flights under this callsign
Pilot: Tyler C. (3191)
Aircraft: AIRBUS A330
(A330)
More flights by this aircraft type
Origin: KLAX Los Angeles Intl
United States
Destination: KRNO Reno/Tahoe Intl
United States
More flights between these airports :: More routes between these airports
Route: +SUMMR1 RIZIN FLW FMG
File this flight plan on PilotEdge
Remarks: NONE
Altitude:
(Current/Filed)
34,000ft
Speed:
(Current/Filed)
515kts
Departed: 05-Oct-18 05:33 PM
Arrived: 05-Oct-18 06:40 PM
Distance/Time
Traveled:
340nm/1:07
Distance/Time
To Go:
Arrived

Flight Plot

Page will automatically refresh every two minutes.

Flight plan parsing failed; only flown route is shown


Map Options




Map Legend


Flown Route
Filed Route
Departure Airport
Arrival Airport
Navaid (VOR, NDB)
Fix

Horizontal Profiles

Position Reports

Time Latitude Longitude Heading Altitude Ground
Speed
05-Oct-18 17:09 33.940219 -118.405002 83 138ft 0kts
05-Oct-18 17:10 33.940219 -118.405002 83 138ft 0kts
05-Oct-18 17:11 33.940219 -118.405002 83 138ft 0kts
05-Oct-18 17:12 33.940219 -118.405002 83 138ft 0kts
05-Oct-18 17:13 33.940219 -118.405002 83 138ft 0kts
05-Oct-18 17:14 33.940219 -118.405002 83 138ft 0kts
05-Oct-18 17:15 33.940219 -118.405002 83 138ft 0kts
05-Oct-18 17:16 33.940219 -118.405002 83 138ft 0kts
05-Oct-18 17:17 33.940219 -118.405002 83 138ft 0kts
05-Oct-18 17:18 33.940219 -118.405002 83 138ft 0kts
05-Oct-18 17:19 33.940219 -118.405002 83 138ft 0kts
05-Oct-18 17:20 33.940219 -118.405003 83 138ft 0kts
05-Oct-18 17:21 33.940219 -118.405003 83 138ft 0kts
05-Oct-18 17:22 33.940219 -118.405003 83 138ft 0kts
05-Oct-18 17:23 33.940219 -118.405003 83 138ft 0kts
05-Oct-18 17:24 33.940219 -118.405003 83 138ft 0kts
05-Oct-18 17:25 33.940219 -118.405003 83 138ft 0kts
05-Oct-18 17:26 33.940219 -118.405003 83 138ft 0kts
05-Oct-18 17:27 33.940219 -118.405003 83 138ft 0kts
05-Oct-18 17:28 33.940214 -118.405196 101 138ft 2kts
05-Oct-18 17:29 33.940580 -118.405625 172 138ft 0kts
05-Oct-18 17:30 33.940618 -118.405631 173 138ft 0kts
05-Oct-18 17:31 33.940618 -118.405631 173 138ft 0kts
05-Oct-18 17:32 33.939760 -118.405404 173 138ft 0kts
05-Oct-18 17:33 33.939201 -118.403896 83 138ft 21kts
05-Oct-18 17:34 33.939696 -118.399065 83 138ft 7kts
05-Oct-18 17:35 33.940208 -118.393980 83 138ft 42kts
05-Oct-18 17:36 33.940964 -118.385895 82 138ft 14kts
05-Oct-18 17:37 33.940627 -118.381734 82 138ft 13kts
05-Oct-18 17:38 33.939716 -118.381224 265 138ft 2kts
05-Oct-18 17:39 33.936722 -118.409967 262 427ft 170kts
05-Oct-18 17:40 33.931244 -118.464948 264 2745ft 176kts
05-Oct-18 17:41 33.925107 -118.539402 264 3544ft 255kts
05-Oct-18 17:42 33.917637 -118.631690 267 5020ft 324kts
05-Oct-18 17:43 33.917236 -118.732351 269 5733ft 266kts
05-Oct-18 17:44 33.916950 -118.815388 270 8384ft 276kts
05-Oct-18 17:45 33.919089 -118.906527 274 11008ft 287kts
05-Oct-18 17:46 33.922124 -119.005568 276 12942ft 322kts
05-Oct-18 17:47 33.969318 -119.108045 304 14237ft 370kts
05-Oct-18 17:48 34.030306 -119.207380 327 16747ft 379kts
05-Oct-18 17:49 34.117936 -119.279084 325 19076ft 391kts
05-Oct-18 17:50 34.206957 -119.355518 324 21240ft 402kts
05-Oct-18 17:51 34.298465 -119.434580 324 23205ft 412kts
05-Oct-18 17:52 34.392747 -119.516267 324 24969ft 423kts
05-Oct-18 17:53 34.500383 -119.575588 337 26546ft 434kts
05-Oct-18 17:54 34.613229 -119.630158 336 28006ft 442kts
05-Oct-18 17:55 34.726416 -119.686023 335 29779ft 439kts
05-Oct-18 17:56 34.838743 -119.740970 335 31463ft 434kts
05-Oct-18 17:57 34.949570 -119.795248 335 33140ft 424kts
05-Oct-18 17:58 35.056465 -119.847728 335 34019ft 417kts
05-Oct-18 17:59 35.172131 -119.862607 357 34024ft 431kts
05-Oct-18 18:00 35.291775 -119.856794 357 34022ft 431kts
05-Oct-18 18:01 35.410927 -119.851439 357 34019ft 432kts
05-Oct-18 18:02 35.530403 -119.846081 357 34024ft 432kts
05-Oct-18 18:03 35.650341 -119.840687 357 34033ft 432kts
05-Oct-18 18:04 35.770216 -119.835282 357 34041ft 431kts
05-Oct-18 18:05 35.889055 -119.829906 357 34035ft 432kts
05-Oct-18 18:06 36.007778 -119.824517 357 34029ft 432kts
05-Oct-18 18:07 36.121224 -119.819353 357 34046ft 432kts
05-Oct-18 18:08 36.238297 -119.814025 357 34042ft 431kts
05-Oct-18 18:09 36.358009 -119.808543 357 34033ft 432kts
05-Oct-18 18:10 36.476599 -119.803094 357 34033ft 432kts
05-Oct-18 18:11 36.583059 -119.798188 357 34047ft 431kts
05-Oct-18 18:12 36.698210 -119.792864 357 34040ft 431kts
05-Oct-18 18:13 36.818246 -119.787305 357 34043ft 434kts
05-Oct-18 18:14 36.936761 -119.781785 357 34056ft 432kts
05-Oct-18 18:15 37.056271 -119.776200 356 34052ft 427kts
05-Oct-18 18:16 37.169756 -119.770915 356 34033ft 425kts
05-Oct-18 18:17 37.287084 -119.765408 355 34045ft 425kts
05-Oct-18 18:18 37.401938 -119.759967 356 33611ft 420kts
05-Oct-18 18:19 37.520086 -119.754405 356 31675ft 431kts
05-Oct-18 18:20 37.639275 -119.748742 357 30720ft 430kts
05-Oct-18 18:21 37.757032 -119.743139 357 29742ft 424kts
05-Oct-18 18:22 37.872472 -119.737626 357 28669ft 417kts
05-Oct-18 18:23 37.986467 -119.732164 357 27585ft 410kts
05-Oct-18 18:24 38.099128 -119.726751 357 26487ft 404kts
05-Oct-18 18:25 38.207744 -119.721547 358 25133ft 400kts
05-Oct-18 18:26 38.314905 -119.722684 353 22962ft 384kts
05-Oct-18 18:27 38.419974 -119.728427 354 21305ft 376kts
05-Oct-18 18:28 38.513744 -119.733062 355 19938ft 381kts
05-Oct-18 18:29 38.616703 -119.738135 355 18346ft 367kts
05-Oct-18 18:30 38.717175 -119.743083 355 16521ft 356kts
05-Oct-18 18:31 38.813591 -119.747845 356 14641ft 341kts
05-Oct-18 18:32 38.905946 -119.752418 355 12929ft 325kts
05-Oct-18 18:33 38.994158 -119.756796 354 11231ft 316kts
05-Oct-18 18:34 39.080939 -119.761112 354 9601ft 309kts
05-Oct-18 18:35 39.160761 -119.765036 354 9006ft 278kts
05-Oct-18 18:36 39.232927 -119.769423 355 9033ft 237kts
05-Oct-18 18:37 39.294517 -119.769939 357 8874ft 222kts
05-Oct-18 18:38 39.353622 -119.769758 358 7494ft 203kts
05-Oct-18 18:39 39.403620 -119.769577 357 6311ft 156kts
05-Oct-18 18:40 39.445962 -119.769453 357 5355ft 157kts
05-Oct-18 18:41 39.488284 -119.769196 355 4439ft 141kts
05-Oct-18 18:42 39.503192 -119.769887 318 4428ft 9kts
05-Oct-18 18:43 39.503321 -119.772214 224 4428ft 10kts
05-Oct-18 18:44 39.503039 -119.772578 224 4428ft 0kts

Navigation Log

Ident Type
Flight plan parsing failed, navigation log unavailable